createdAt,value
2022-11-15T04:02:25.185Z,7.33
2022-11-15T04:04:52.349Z,7.20
2022-11-15T04:07:19.558Z,7.33
2022-11-15T04:10:05.035Z,5.87
2022-11-15T04:12:37.536Z,7.33
2022-11-15T04:15:10.441Z,7.53
2022-11-15T04:17:49.002Z,6.97
2022-11-15T04:20:44.006Z,6.10
2022-11-15T04:23:31.388Z,8.40
2022-11-15T04:26:01.917Z,6.47
2022-11-15T04:28:29.762Z,6.53
2022-11-15T04:30:57.052Z,7.00
2022-11-15T04:33:24.237Z,7.03
2022-11-15T04:36:10.301Z,6.60
2022-11-15T04:38:38.080Z,6.50
2022-11-15T04:41:05.380Z,6.70
2022-11-15T04:43:32.836Z,6.10
2022-11-15T04:46:00.152Z,7.10
2022-11-15T04:48:27.280Z,7.40
2022-11-15T04:50:54.446Z,7.13
2022-11-15T04:53:21.659Z,7.87
2022-11-15T04:55:48.814Z,7.23
2022-11-15T04:58:15.960Z,7.67
2022-11-15T05:00:43.198Z,8.73
2022-11-15T05:03:30.290Z,10.20
2022-11-15T05:05:59.594Z,9.37
2022-11-15T05:08:26.987Z,7.97
2022-11-15T05:10:54.149Z,8.63
2022-11-15T05:13:21.969Z,7.73
2022-11-15T05:15:49.108Z,6.77
2022-11-15T05:18:22.149Z,6.27
2022-11-15T05:20:50.575Z,7.03
2022-11-15T05:23:17.786Z,7.03
2022-11-15T05:25:44.955Z,6.63
2022-11-15T05:28:12.146Z,7.07
2022-11-15T05:30:39.361Z,6.60
2022-11-15T05:33:06.515Z,6.87
2022-11-15T05:35:40.994Z,6.70
2022-11-15T05:38:08.621Z,6.80
2022-11-15T05:40:36.351Z,6.50
2022-11-15T05:43:05.725Z,6.87
2022-11-15T05:45:35.071Z,7.10
2022-11-15T05:48:08.531Z,7.40
2022-11-15T05:50:38.920Z,7.60
2022-11-15T05:53:07.070Z,8.47
2022-11-15T05:55:34.670Z,7.70
2022-11-15T05:58:02.298Z,8.40
2022-11-15T06:00:29.867Z,7.57
2022-11-15T06:02:56.988Z,7.07
2022-11-15T06:05:24.168Z,6.57
2022-11-15T06:07:51.515Z,5.80
2022-11-15T06:10:18.785Z,7.37
2022-11-15T06:12:45.957Z,7.40
2022-11-15T06:15:13.116Z,7.53
2022-11-15T06:17:40.251Z,7.73
2022-11-15T06:20:07.822Z,7.90
2022-11-15T06:22:35.008Z,7.97
2022-11-15T06:25:05.397Z,9.17
2022-11-15T06:27:32.903Z,8.77
2022-11-15T06:30:00.060Z,7.37
2022-11-15T06:32:27.477Z,7.83
2022-11-15T06:34:54.624Z,8.03
2022-11-15T06:37:21.768Z,9.27
2022-11-15T06:39:48.929Z,9.20
2022-11-15T06:42:16.053Z,8.87
2022-11-15T06:44:43.418Z,8.27
2022-11-15T06:47:10.758Z,8.40
2022-11-15T06:49:37.892Z,9.37
2022-11-15T06:52:05.210Z,8.40
2022-11-15T06:54:32.461Z,7.90
2022-11-15T06:56:59.590Z,8.63
2022-11-15T06:59:26.738Z,7.73
2022-11-15T07:01:53.851Z,8.67
2022-11-15T07:04:21.071Z,7.67
2022-11-15T07:06:49.263Z,10.07
2022-11-15T07:09:16.508Z,9.50
2022-11-15T07:11:43.687Z,9.53
2022-11-15T07:14:10.840Z,9.30
2022-11-15T07:16:38.431Z,9.03
2022-11-15T07:19:05.625Z,8.27
2022-11-15T07:21:33.868Z,8.70
2022-11-15T07:24:00.969Z,8.57
2022-11-15T07:26:28.129Z,8.07
2022-11-15T07:28:55.652Z,7.93
2022-11-15T07:31:23.447Z,8.30
2022-11-15T07:33:50.584Z,8.33
2022-11-15T07:36:18.077Z,7.87
2022-11-15T07:38:45.302Z,8.47
2022-11-15T07:41:12.529Z,8.27
2022-11-15T07:43:39.804Z,8.23
2022-11-15T07:46:10.247Z,8.20
2022-11-15T07:48:44.378Z,8.20
2022-11-15T07:51:15.930Z,8.43
2022-11-15T07:53:44.005Z,8.57
2022-11-15T07:56:11.836Z,8.83
2022-11-15T07:58:39.178Z,8.13
2022-11-15T08:01:07.868Z,9.90
2022-11-15T08:03:35.841Z,8.90
2022-11-15T08:06:03.817Z,8.80
2022-11-15T08:08:30.955Z,7.50
2022-11-15T08:11:01.587Z,8.27
2022-11-15T08:13:29.311Z,9.60
2022-11-15T08:16:01.292Z,8.90
2022-11-15T08:18:28.433Z,8.80
2022-11-15T08:21:00.761Z,9.83
2022-11-15T08:23:28.710Z,8.80
2022-11-15T08:26:01.847Z,8.10
2022-11-15T08:28:29.143Z,8.17
2022-11-15T08:30:56.347Z,8.17
2022-11-15T08:33:23.711Z,7.90
2022-11-15T08:35:50.918Z,7.17
2022-11-15T08:38:18.049Z,8.10
2022-11-15T08:40:45.238Z,7.40
2022-11-15T08:43:12.367Z,8.00
2022-11-15T08:45:39.624Z,7.90
2022-11-15T08:48:06.899Z,7.80
2022-11-15T08:50:34.038Z,7.47
2022-11-15T08:53:09.346Z,9.00
2022-11-15T08:55:40.507Z,7.40
2022-11-15T08:58:08.032Z,7.30
2022-11-15T09:00:35.353Z,7.00
2022-11-15T09:03:06.084Z,7.07
2022-11-15T09:05:33.556Z,11.70
2022-11-15T09:08:00.858Z,8.30
2022-11-15T09:10:31.281Z,7.67
2022-11-15T09:12:58.900Z,7.87
2022-11-15T09:15:26.192Z,6.77
2022-11-15T09:17:53.321Z,6.60
2022-11-15T09:20:20.479Z,8.27
2022-11-15T09:22:47.659Z,7.47
2022-11-15T09:25:14.795Z,7.07
2022-11-15T09:27:42.018Z,7.27
2022-11-15T09:30:09.575Z,6.90
2022-11-15T09:32:39.480Z,6.50
2022-11-15T09:35:07.032Z,5.90
2022-11-15T09:37:34.227Z,5.67
2022-11-15T09:40:01.759Z,6.10
2022-11-15T09:43:04.058Z,6.00
2022-11-15T09:46:06.164Z,5.97
2022-11-15T09:49:01.271Z,5.60
2022-11-15T09:51:37.262Z,6.70
2022-11-15T09:54:45.589Z,5.93
2022-11-15T09:57:15.731Z,6.23
2022-11-15T09:59:48.436Z,5.68
2022-11-15T10:02:43.226Z,5.37
2022-11-15T10:05:15.251Z,6.00
2022-11-15T10:07:52.206Z,5.20
2022-11-15T10:10:25.400Z,5.68
2022-11-15T10:12:53.842Z,5.90
2022-11-15T10:15:24.925Z,5.70
2022-11-15T10:18:07.536Z,5.43
2022-11-15T10:20:47.092Z,5.90
2022-11-15T10:23:17.206Z,6.18
2022-11-15T10:25:44.836Z,5.90
2022-11-15T10:28:26.765Z,5.87
2022-11-15T10:30:56.774Z,5.30
2022-11-15T10:33:38.225Z,5.32
2022-11-15T10:36:14.201Z,4.65
2022-11-15T10:38:50.651Z,5.30
2022-11-15T10:41:22.546Z,5.10
2022-11-15T10:44:07.780Z,4.68
2022-11-15T10:46:51.933Z,5.00
2022-11-15T10:49:23.123Z,5.47
2022-11-15T10:52:03.933Z,5.53
2022-11-15T10:54:34.475Z,5.70
2022-11-15T10:57:26.488Z,5.23
2022-11-15T10:59:57.316Z,5.50
2022-11-15T11:02:46.579Z,5.80
2022-11-15T11:05:41.351Z,5.85
2022-11-15T11:08:15.590Z,4.85
2022-11-15T11:11:00.046Z,4.45
2022-11-15T11:13:37.517Z,4.80
2022-11-15T11:16:25.903Z,4.40
2022-11-15T11:19:17.792Z,4.60
2022-11-15T11:22:03.282Z,4.68
2022-11-15T11:24:41.653Z,4.53
2022-11-15T11:27:43.078Z,4.68
2022-11-15T11:30:39.466Z,4.90
2022-11-15T11:33:24.661Z,5.22
2022-11-15T11:36:09.974Z,4.40
2022-11-15T11:38:54.895Z,4.40
2022-11-15T11:41:48.823Z,4.03
2022-11-15T11:44:24.002Z,4.13
2022-11-15T11:47:22.150Z,4.32
2022-11-15T11:49:57.145Z,4.38
2022-11-15T11:52:31.372Z,4.00
2022-11-15T11:55:22.774Z,4.25
2022-11-15T11:57:54.517Z,4.10
2022-11-15T12:00:23.727Z,4.40
2022-11-15T12:03:24.791Z,4.78
2022-11-15T12:05:57.592Z,5.65
2022-11-15T12:08:48.599Z,4.82
2022-11-15T12:11:24.983Z,4.20
2022-11-15T12:13:59.162Z,4.47
2022-11-15T12:16:32.188Z,3.97
2022-11-15T12:19:04.347Z,4.13
2022-11-15T12:21:53.998Z,3.97
2022-11-15T12:24:50.124Z,4.05
2022-11-15T12:27:33.668Z,4.22
2022-11-15T12:30:12.669Z,4.25
2022-11-15T12:32:42.074Z,4.05
2022-11-15T12:35:27.495Z,4.20
2022-11-15T12:37:57.555Z,4.07
2022-11-15T12:40:34.236Z,4.50
2022-11-15T12:43:16.532Z,5.30
2022-11-15T12:45:47.457Z,4.20
2022-11-15T12:48:17.516Z,4.30
2022-11-15T12:50:56.479Z,4.40
2022-11-15T12:53:31.137Z,4.95
2022-11-15T12:56:04.251Z,4.43
2022-11-15T12:58:52.290Z,4.32
2022-11-15T13:01:34.940Z,4.43
2022-11-15T13:04:20.566Z,4.15
2022-11-15T13:06:57.974Z,4.15
2022-11-15T13:09:37.165Z,4.32
2022-11-15T13:12:09.323Z,3.58
2022-11-15T13:14:45.265Z,3.53
2022-11-15T13:17:21.192Z,3.72
2022-11-15T13:19:53.890Z,3.30
2022-11-15T13:22:39.709Z,3.72
2022-11-15T13:25:34.243Z,3.80
2022-11-15T13:28:07.623Z,3.25
2022-11-15T13:30:36.972Z,4.20
2022-11-15T13:33:21.550Z,4.80
2022-11-15T13:35:56.625Z,3.85
2022-11-15T13:38:28.080Z,3.72
2022-11-15T13:40:56.413Z,4.20
2022-11-15T13:43:28.565Z,4.20
2022-11-15T13:46:10.936Z,4.32
2022-11-15T13:48:38.682Z,3.75
2022-11-15T13:51:20.338Z,4.30
2022-11-15T13:54:23.370Z,4.55
2022-11-15T13:56:56.728Z,4.60
2022-11-15T13:59:27.077Z,4.70
2022-11-15T14:01:56.899Z,5.20
2022-11-15T14:04:26.426Z,4.93
2022-11-15T14:06:57.722Z,4.10
2022-11-15T14:09:32.141Z,5.10
2022-11-15T14:12:00.357Z,4.57
2022-11-15T14:14:29.365Z,4.38
2022-11-15T14:17:01.322Z,4.63
2022-11-15T14:19:28.467Z,4.80
2022-11-15T14:22:13.534Z,5.25
2022-11-15T14:24:41.702Z,5.10
2022-11-15T14:27:19.359Z,4.85
2022-11-15T14:29:47.299Z,5.40
2022-11-15T14:32:18.225Z,5.78
2022-11-15T14:34:45.694Z,5.03
2022-11-15T14:37:35.484Z,5.50
2022-11-15T14:40:05.055Z,5.32
2022-11-15T14:42:32.713Z,5.40
2022-11-15T14:45:00.037Z,5.63
2022-11-15T14:47:27.244Z,5.72
2022-11-15T14:49:54.399Z,5.55
2022-11-15T14:52:32.929Z,5.32
2022-11-15T14:55:03.126Z,5.50
2022-11-15T14:57:31.240Z,5.93
2022-11-15T14:59:58.389Z,5.38
2022-11-15T15:02:27.991Z,5.28
2022-11-15T15:04:55.204Z,5.30
2022-11-15T15:07:23.167Z,4.78
2022-11-15T15:09:50.581Z,5.55
2022-11-15T15:12:24.246Z,5.70
2022-11-15T15:14:51.841Z,5.88
2022-11-15T15:17:19.161Z,5.80
2022-11-15T15:19:46.774Z,5.50
2022-11-15T15:22:18.823Z,5.47
2022-11-15T15:24:47.138Z,5.57
2022-11-15T15:27:14.381Z,5.95
2022-11-15T15:29:41.976Z,5.82
2022-11-15T15:32:09.805Z,5.20
2022-11-15T15:34:36.967Z,6.03
2022-11-15T15:37:26.783Z,6.05
2022-11-15T15:39:57.754Z,6.95
2022-11-15T15:42:25.146Z,7.10
2022-11-15T15:44:52.544Z,7.35
2022-11-15T15:47:24.494Z,6.88
2022-11-15T15:49:51.920Z,6.50
2022-11-15T15:52:19.161Z,7.05
2022-11-15T15:54:46.268Z,7.40
2022-11-15T15:57:15.115Z,8.68
2022-11-15T15:59:43.043Z,12.23
2022-11-15T16:02:13.062Z,15.48
2022-11-15T16:04:40.650Z,15.25
2022-11-15T16:07:18.520Z,13.30
2022-11-15T16:10:01.218Z,19.20
2022-11-15T16:12:29.307Z,20.85
2022-11-15T16:14:56.577Z,20.55
2022-11-15T16:17:31.398Z,20.00
2022-11-15T16:20:01.373Z,14.68
2022-11-15T16:22:30.074Z,9.13
2022-11-15T16:24:57.725Z,8.20
2022-11-15T16:27:25.155Z,7.70
2022-11-15T16:29:52.444Z,6.90
2022-11-15T16:32:19.683Z,7.03
2022-11-15T16:34:49.171Z,7.07
2022-11-15T16:37:23.661Z,6.65
2022-11-15T16:39:51.360Z,7.60
2022-11-15T16:42:18.583Z,8.13
2022-11-15T16:44:45.835Z,8.02
2022-11-15T16:47:22.945Z,7.78
2022-11-15T16:49:50.594Z,7.60
2022-11-15T16:52:21.387Z,8.02
2022-11-15T16:54:49.117Z,7.90
2022-11-15T16:57:16.636Z,7.50
2022-11-15T16:59:43.779Z,6.85
2022-11-15T17:02:15.063Z,7.40
2022-11-15T17:04:42.165Z,9.90
2022-11-15T17:07:09.620Z,10.48
2022-11-15T17:09:36.816Z,10.70
2022-11-15T17:12:04.284Z,11.35
2022-11-15T17:14:31.428Z,11.60
2022-11-15T17:16:58.611Z,13.23
2022-11-15T17:19:25.771Z,11.43
2022-11-15T17:21:53.846Z,12.63
2022-11-15T17:24:21.273Z,13.27
2022-11-15T17:26:48.546Z,11.35
2022-11-15T17:29:15.673Z,10.85
2022-11-15T17:31:42.972Z,11.20
2022-11-15T17:34:10.188Z,12.20
2022-11-15T17:36:37.396Z,12.32
2022-11-15T17:39:05.317Z,10.13
2022-11-15T17:41:32.668Z,10.18
2022-11-15T17:44:00.604Z,8.90
2022-11-15T17:46:28.426Z,9.25
2022-11-15T17:48:57.094Z,9.10
2022-11-15T17:51:24.388Z,8.57
2022-11-15T17:53:51.871Z,9.27
2022-11-15T17:56:20.960Z,9.95
2022-11-15T17:58:53.821Z,10.27
2022-11-15T18:01:28.582Z,10.10
2022-11-15T18:03:56.849Z,10.43
2022-11-15T18:06:24.946Z,9.73
2022-11-15T18:08:56.068Z,10.43
2022-11-15T18:11:28.685Z,11.02
2022-11-15T18:14:01.226Z,10.05
2022-11-15T18:16:31.081Z,10.43
2022-11-15T18:18:59.103Z,10.70
2022-11-15T18:21:31.125Z,10.80
2022-11-15T18:24:00.156Z,11.02
2022-11-15T18:26:30.072Z,11.65
2022-11-15T18:29:03.058Z,11.43
2022-11-15T18:31:31.510Z,12.43
2022-11-15T18:34:00.065Z,11.63
2022-11-15T18:36:29.592Z,12.68
2022-11-15T18:38:58.756Z,14.43
2022-11-15T18:41:28.826Z,16.25
2022-11-15T18:43:57.895Z,13.93
2022-11-15T18:46:27.348Z,13.67
2022-11-15T18:48:55.670Z,13.05
2022-11-15T18:51:25.748Z,13.35
2022-11-15T18:53:54.636Z,11.90
2022-11-15T18:56:23.223Z,16.23
2022-11-15T18:58:52.514Z,16.75
2022-11-15T19:01:25.097Z,16.08
2022-11-15T19:03:54.783Z,13.77
2022-11-15T19:06:24.404Z,13.20
2022-11-15T19:08:53.198Z,12.57
2022-11-15T19:11:24.164Z,11.93
2022-11-15T19:14:11.847Z,11.02
2022-11-15T19:16:50.087Z,9.60
2022-11-15T19:19:20.071Z,11.05
2022-11-15T19:21:47.915Z,10.20
2022-11-15T19:24:15.513Z,10.60
2022-11-15T19:26:42.990Z,13.02
2022-11-15T19:29:10.799Z,12.98
2022-11-15T19:31:38.485Z,11.63
2022-11-15T19:34:06.785Z,10.85
2022-11-15T19:36:42.045Z,12.47
2022-11-15T19:39:17.873Z,14.30
2022-11-15T19:41:45.588Z,15.23
2022-11-15T19:44:13.254Z,13.37
2022-11-15T19:46:41.065Z,14.37
2022-11-15T19:49:10.805Z,17.13
2022-11-15T19:51:41.408Z,16.03
2022-11-15T19:54:09.802Z,14.67
2022-11-15T19:56:37.493Z,14.70
2022-11-15T19:59:05.477Z,14.27
2022-11-15T20:01:36.313Z,12.20
2022-11-15T20:04:04.323Z,11.37
2022-11-15T20:06:37.919Z,10.70
2022-11-15T20:09:05.312Z,11.03
2022-11-15T20:11:34.076Z,10.70
2022-11-15T20:14:04.990Z,11.15
2022-11-15T20:16:32.213Z,10.90
2022-11-15T20:18:59.567Z,10.90
2022-11-15T20:21:26.775Z,10.80
2022-11-15T20:23:53.998Z,11.70
2022-11-15T20:26:21.852Z,9.73
2022-11-15T20:28:49.507Z,11.27
2022-11-15T20:31:17.436Z,11.05
2022-11-15T20:33:44.923Z,12.03
2022-11-15T20:36:14.445Z,11.30
2022-11-15T20:38:42.097Z,13.87
2022-11-15T20:41:14.542Z,11.93
2022-11-15T20:43:43.640Z,13.60
2022-11-15T20:46:12.532Z,12.90
2022-11-15T20:48:40.244Z,13.10
2022-11-15T20:51:14.381Z,14.07
2022-11-15T20:53:43.074Z,14.47
2022-11-15T20:56:13.529Z,14.97
2022-11-15T20:58:41.859Z,13.00
2022-11-15T21:01:11.586Z,12.35
2022-11-15T21:03:38.886Z,11.55
2022-11-15T21:06:06.492Z,10.30
2022-11-15T21:08:53.691Z,9.98
2022-11-15T21:11:39.602Z,10.02
2022-11-15T21:14:09.645Z,10.83
2022-11-15T21:16:38.006Z,10.97
2022-11-15T21:19:06.123Z,11.47
2022-11-15T21:21:33.790Z,11.70
2022-11-15T21:24:03.923Z,10.10
2022-11-15T21:26:31.237Z,10.73
2022-11-15T21:28:58.573Z,11.47
2022-11-15T21:31:25.724Z,12.80
2022-11-15T21:33:53.020Z,12.95
2022-11-15T21:36:20.204Z,13.87
2022-11-15T21:38:47.401Z,13.20
2022-11-15T21:41:14.536Z,13.40
2022-11-15T21:43:41.695Z,12.03
2022-11-15T21:46:09.693Z,12.47
2022-11-15T21:48:37.197Z,12.27
2022-11-15T21:51:06.655Z,12.43
2022-11-15T21:53:34.376Z,12.20
2022-11-15T21:56:02.327Z,11.90
2022-11-15T21:58:30.051Z,12.50
